Time;durP1;ratioP1;P1;durP2;ratioP2;P2;SDS_P1;SDS_P2;PMS_P1;PMS_P2;Temp;Humidity;BMP_temperature;BMP_pressure;BME280_temperature;BME280_humidity;BME280_pressure;Samples;Min_cycle;Max_cycle;Signal;HPM_P1;HPM_P2
2022/02/07 00:00:58;;;;;;;1.83;1.60;;;;;;;8.00;85.95;97911.75;4904133;29;20225;-78
2022/02/07 00:03:51;;;;;;;2.40;2.03;;;;;;;7.92;87.78;97903.13;4921223;29;20187;-78
2022/02/07 00:06:13;;;;;;;2.97;2.03;;;;;;;7.93;87.63;97872.72;4903684;29;20523;-77
2022/02/07 00:08:41;;;;;;;3.43;2.60;;;;;;;7.91;88.17;97861.50;4904407;29;20183;-78
2022/02/07 00:11:08;;;;;;;2.67;2.10;;;;;;;8.01;87.86;97876.03;4920980;29;20194;-78
2022/02/07 00:13:35;;;;;;;2.47;2.20;;;;;;;7.96;89.22;97869.56;4888202;29;20202;-77
2022/02/07 00:16:01;;;;;;;3.03;2.27;;;;;;;7.93;89.77;97869.25;4903745;29;20230;-79
2022/02/07 00:18:28;;;;;;;3.00;2.30;;;;;;;7.99;89.25;97860.25;4920349;29;20193;-81
2022/02/07 00:20:57;;;;;;;4.20;2.60;;;;;;;7.97;89.47;97876.53;4887809;29;20202;-77
2022/02/07 00:23:24;;;;;;;2.90;2.50;;;;;;;7.92;89.58;97855.13;4920838;29;20298;-77
2022/02/07 00:25:51;;;;;;;3.10;2.80;;;;;;;7.93;89.12;97856.72;4903790;29;20577;-77
2022/02/07 00:28:18;;;;;;;3.40;2.63;;;;;;;7.92;88.84;97848.97;4920254;29;20190;-80
2022/02/07 00:30:44;;;;;;;2.87;2.50;;;;;;;7.90;89.45;97867.88;4887976;29;20206;-77
2022/02/07 00:33:11;;;;;;;2.83;2.63;;;;;;;7.93;89.45;97840.72;4920579;29;20301;-77
2022/02/07 00:35:39;;;;;;;3.17;2.70;;;;;;;7.87;90.47;97814.25;4904037;29;20187;-77
2022/02/07 00:38:11;;;;;;;3.57;2.47;;;;;;;7.79;90.60;97815.44;4903189;29;20277;-78
2022/02/07 00:40:46;;;;;;;2.60;2.40;;;;;;;7.82;90.86;97838.16;4904128;29;20178;-78
2022/02/07 00:43:39;;;;;;;2.60;2.40;;;;;;;7.78;91.32;97821.84;4903239;29;20245;-76
2022/02/07 00:46:11;;;;;;;3.30;2.40;;;;;;;7.73;92.35;97827.13;4905980;29;20229;-77
2022/02/07 00:48:39;;;;;;;3.13;2.70;;;;;;;7.73;91.82;97821.78;4874018;29;20206;-78
2022/02/07 00:51:10;;;;;;;3.00;2.40;;;;;;;7.73;92.65;97831.63;4903237;29;20198;-78
2022/02/07 00:53:37;;;;;;;3.33;2.57;;;;;;;7.61;94.07;97833.56;4903214;29;20721;-81
2022/02/07 00:56:05;;;;;;;2.63;2.43;;;;;;;7.63;94.23;97828.81;4887757;29;20313;-77
2022/02/07 00:58:35;;;;;;;3.50;2.47;;;;;;;7.69;93.97;97818.00;4888736;29;20642;-81
2022/02/07 01:01:03;;;;;;;2.57;2.30;;;;;;;7.65;94.57;97819.50;4888055;29;20209;-76
2022/02/07 01:03:36;;;;;;;3.83;2.50;;;;;;;7.66;94.62;97815.00;4888435;29;20294;-78
2022/02/07 01:06:04;;;;;;;2.50;2.30;;;;;;;7.63;95.10;97818.16;4920241;29;20229;-78
2022/02/07 01:08:40;;;;;;;3.47;2.40;;;;;;;7.65;95.47;97813.41;4903038;29;20225;-79
2022/02/07 01:11:32;;;;;;;2.40;2.20;;;;;;;7.62;95.75;97804.03;4902618;29;20284;-77
2022/02/07 01:14:24;;;;;;;2.50;2.30;;;;;;;7.60;95.85;97808.81;4904378;29;20202;-77
2022/02/07 01:47:35;;;;;;;2.33;2.10;;;;;;;7.25;98.28;97704.38;4902270;29;20238;-80
2022/02/07 01:52:43;;;;;;;2.40;2.20;;;;;;;7.13;99.35;97732.97;4902403;29;20194;-77
2022/02/07 01:55:21;;;;;;;2.13;1.93;;;;;;;7.11;100.00;97721.72;4889510;29;20211;-78
2022/02/07 01:57:48;;;;;;;1.53;1.43;;;;;;;7.03;100.00;97712.31;4919174;29;20511;-80
2022/02/07 02:00:21;;;;;;;1.60;1.50;;;;;;;7.08;100.00;97731.03;4902045;29;20638;-77
2022/02/07 02:02:48;;;;;;;1.50;1.40;;;;;;;7.22;100.00;97724.31;4902340;29;20285;-76
2022/02/07 02:05:39;;;;;;;1.30;1.20;;;;;;;7.34;100.00;97730.34;4888387;29;20225;-77
2022/02/07 02:08:16;;;;;;;1.10;1.00;;;;;;;7.35;100.00;97739.94;4901672;29;20208;-80
2022/02/07 02:10:49;;;;;;;1.30;1.20;;;;;;;7.40;100.00;97734.69;4902679;29;20187;-77
2022/02/07 02:13:27;;;;;;;1.57;1.27;;;;;;;7.45;100.00;97737.44;4901773;29;20202;-78
2022/02/07 02:16:04;;;;;;;1.30;1.20;;;;;;;7.39;100.00;97737.59;4902074;29;20190;-78
2022/02/07 02:35:20;;;;;;;0.10;0.10;;;;;;;8.15;100.00;97731.38;4892418;29;20205;-80
2022/02/07 02:45:41;;;;;;;0.70;0.20;;;;;;;8.25;100.00;97710.16;4905200;29;20198;-79
2022/02/07 02:48:30;;;;;;;0.17;0.17;;;;;;;8.25;100.00;97696.03;4905617;29;20201;-78
2022/02/07 02:51:06;;;;;;;0.10;0.10;;;;;;;8.22;100.00;97699.97;4890186;29;20596;-78
2022/02/07 02:53:34;;;;;;;0.10;0.10;;;;;;;8.24;100.00;97700.53;4905444;29;20197;-80
2022/02/07 02:56:01;;;;;;;0.10;0.10;;;;;;;8.19;100.00;97700.50;4905601;29;20198;-78
2022/02/07 02:58:48;;;;;;;0.10;0.10;;;;;;;8.29;100.00;97697.13;4905498;29;20191;-77
2022/02/07 03:01:16;;;;;;;0.20;0.20;;;;;;;8.23;100.00;97695.44;4889621;29;20204;-77
2022/02/07 03:03:51;;;;;;;0.10;0.10;;;;;;;8.28;100.00;97709.66;4890634;29;20251;-78
2022/02/07 03:06:18;;;;;;;0.30;0.17;;;;;;;8.30;100.00;97720.13;4922267;29;20266;-78
2022/02/07 03:08:45;;;;;;;0.17;0.10;;;;;;;8.35;100.00;97730.84;4889638;29;20205;-81
2022/02/07 03:11:19;;;;;;;0.10;0.10;;;;;;;8.20;100.00;97731.44;4889984;29;20212;-79
2022/02/07 03:13:54;;;;;;;0.10;0.10;;;;;;;8.33;100.00;97746.28;4875937;29;20218;-80
2022/02/07 03:16:47;;;;;;;0.10;0.10;;;;;;;8.34;100.00;97753.25;4918696;29;20195;-78
2022/02/07 03:19:17;;;;;;;0.10;0.10;;;;;;;8.26;100.00;97773.13;4889714;29;20202;-78
2022/02/07 03:21:47;;;;;;;0.10;0.10;;;;;;;8.35;100.00;97781.53;4904829;29;20230;-78
2022/02/07 03:24:16;;;;;;;0.10;0.10;;;;;;;8.25;100.00;97787.53;4889885;29;20207;-78
2022/02/07 03:26:53;;;;;;;0.10;0.10;;;;;;;8.28;100.00;97792.38;4891028;29;20638;-78
2022/02/07 03:29:30;;;;;;;0.13;0.13;;;;;;;8.17;100.00;97795.94;4890786;29;20198;-81
2022/02/07 03:31:57;;;;;;;0.77;0.10;;;;;;;8.10;100.00;97799.88;4921821;29;20190;-81
2022/02/07 03:34:30;;;;;;;0.27;0.10;;;;;;;8.12;100.00;97808.44;4904874;29;20602;-79
2022/02/07 03:36:59;;;;;;;0.10;0.10;;;;;;;8.11;100.00;97802.31;4905109;29;20193;-79
2022/02/07 03:39:28;;;;;;;0.10;0.10;;;;;;;8.03;100.00;97813.38;4905115;29;20198;-80
2022/02/07 03:41:55;;;;;;;0.10;0.10;;;;;;;8.01;100.00;97817.34;4904704;29;20194;-79
2022/02/07 03:44:22;;;;;;;0.10;0.10;;;;;;;8.09;100.00;97828.41;4904838;29;20281;-80
2022/02/07 03:46:49;;;;;;;0.20;0.20;;;;;;;8.07;99.10;97843.06;4904692;29;20589;-80
2022/02/07 03:49:21;;;;;;;0.20;0.20;;;;;;;8.08;97.87;97850.78;4904847;29;20198;-77
2022/02/07 03:51:47;;;;;;;0.20;0.20;;;;;;;8.11;96.42;97852.97;4889034;29;20191;-78
2022/02/07 03:54:17;;;;;;;0.10;0.10;;;;;;;8.10;94.54;97855.88;4903994;29;20178;-77
2022/02/07 03:56:47;;;;;;;0.10;0.10;;;;;;;8.04;93.48;97841.66;4889233;29;20273;-81
2022/02/07 03:59:15;;;;;;;0.10;0.10;;;;;;;8.10;93.18;97848.69;4905049;29;20222;-78
2022/02/07 04:01:42;;;;;;;0.20;0.20;;;;;;;8.03;94.66;97863.25;4905043;29;20202;-78
2022/02/07 04:04:10;;;;;;;0.20;0.20;;;;;;;8.07;95.22;97867.06;4890686;29;20274;-80
2022/02/07 04:06:37;;;;;;;0.20;0.20;;;;;;;7.90;96.15;97867.06;4905021;29;20274;-79
2022/02/07 04:09:16;;;;;;;0.50;0.27;;;;;;;7.84;97.60;97884.84;4904717;29;20205;-80
2022/02/07 04:11:52;;;;;;;0.17;0.17;;;;;;;7.70;98.27;97882.78;4890895;29;20673;-78
2022/02/07 04:14:23;;;;;;;0.10;0.10;;;;;;;7.68;98.35;97874.22;4905706;29;20201;-81
2022/02/07 04:17:15;;;;;;;0.20;0.20;;;;;;;7.59;98.27;97859.69;4917431;29;20206;-78
2022/02/07 04:19:43;;;;;;;0.30;0.30;;;;;;;7.51;98.38;97866.22;4890466;29;20312;-81
2022/02/07 04:22:11;;;;;;;0.20;0.20;;;;;;;7.46;98.99;97887.47;4890947;29;20252;-78
2022/02/07 04:24:54;;;;;;;0.10;0.10;;;;;;;7.46;99.21;97895.47;4906705;29;20205;-81
2022/02/07 04:27:26;;;;;;;0.20;0.20;;;;;;;7.44;98.59;97906.34;4907058;29;20210;-80
2022/02/07 04:29:54;;;;;;;0.20;0.20;;;;;;;7.38;98.35;97912.63;4906405;29;20194;-78
2022/02/07 04:32:25;;;;;;;0.10;0.10;;;;;;;7.37;98.81;97907.56;4876552;29;20285;-78
2022/02/07 04:34:52;;;;;;;0.20;0.20;;;;;;;7.38;97.89;97943.78;4907270;29;20610;-77
2022/02/07 04:37:20;;;;;;;0.20;0.10;;;;;;;7.36;98.45;97940.56;4906360;29;20493;-78
2022/02/07 04:39:50;;;;;;;0.10;0.10;;;;;;;7.32;98.84;97928.78;4906955;29;20285;-80
2022/02/07 04:42:26;;;;;;;0.10;0.10;;;;;;;7.15;100.00;97927.91;4907188;29;20538;-78
2022/02/07 04:50:24;;;;;;;0.20;0.20;;;;;;;7.14;97.79;97905.81;4892628;29;20201;-76
2022/02/07 04:53:19;;;;;;;0.20;0.20;;;;;;;7.04;98.10;97919.78;4906142;29;20225;-80
2022/02/07 05:01:09;;;;;;;0.10;0.10;;;;;;;7.07;94.95;97903.31;4906238;29;20594;-80
2022/02/07 05:03:50;;;;;;;0.10;0.10;;;;;;;7.01;94.32;97901.59;4906475;29;20189;-78
2022/02/07 05:14:44;;;;;;;0.10;0.10;;;;;;;6.76;94.98;97946.38;4904809;29;20234;-79
2022/02/07 05:17:13;;;;;;;0.20;0.20;;;;;;;6.61;95.80;97956.69;4905440;29;20186;-80
2022/02/07 05:19:55;;;;;;;0.40;0.30;;;;;;;6.62;95.60;97974.28;4922147;29;20190;-80
2022/02/07 05:22:35;;;;;;;0.10;0.10;;;;;;;6.74;93.23;97979.56;4890969;29;20230;-77
2022/02/07 05:25:38;;;;;;;0.10;0.10;;;;;;;6.60;92.20;97968.38;4883040;29;20203;-78
2022/02/07 05:28:25;;;;;;;0.10;0.10;;;;;;;6.59;91.25;97958.78;4891117;29;20206;-81
2022/02/07 05:31:19;;;;;;;0.43;0.20;;;;;;;6.56;90.63;97933.44;4905784;29;20560;-81
2022/02/07 05:34:04;;;;;;;0.10;0.10;;;;;;;6.45;89.51;97931.63;4908868;29;20210;-80
2022/02/07 05:36:59;;;;;;;0.97;0.43;;;;;;;6.39;89.33;97926.44;4893648;29;20553;-80
2022/02/07 05:39:36;;;;;;;0.20;0.20;;;;;;;6.32;89.51;97923.06;4891118;29;20198;-81
2022/02/07 05:42:19;;;;;;;0.47;0.10;;;;;;;6.38;87.64;97880.41;4905209;29;20202;-77
2022/02/07 05:45:10;;;;;;;0.47;0.20;;;;;;;6.33;87.23;97824.44;4891840;29;20230;-78
2022/02/07 05:47:52;;;;;;;0.10;0.10;;;;;;;6.29;85.74;97886.31;4904489;29;20839;-79
2022/02/07 05:50:37;;;;;;;0.10;0.10;;;;;;;6.41;84.03;97922.50;4891568;29;20197;-81
2022/02/07 05:53:36;;;;;;;0.30;0.20;;;;;;;6.35;84.78;97928.72;4888631;29;20611;-80
2022/02/07 05:56:22;;;;;;;0.20;0.20;;;;;;;6.29;84.45;97950.16;4921707;29;20269;-79
2022/02/07 05:59:03;;;;;;;0.20;0.20;;;;;;;6.31;84.67;98015.34;4903838;29;20194;-78
2022/02/07 06:01:49;;;;;;;0.20;0.20;;;;;;;6.36;83.50;98046.59;4921138;29;20610;-78
2022/02/07 06:04:15;;;;;;;0.20;0.20;;;;;;;6.42;82.52;98033.19;4889664;29;20269;-80
2022/02/07 06:06:44;;;;;;;0.33;0.13;;;;;;;6.43;82.10;98076.56;4888917;29;20206;-81
2022/02/07 06:09:12;;;;;;;0.30;0.30;;;;;;;6.48;81.03;98076.69;4904550;29;20186;-80
2022/02/07 06:11:44;;;;;;;1.60;0.20;;;;;;;6.53;81.05;98074.91;4903851;29;20598;-80
2022/02/07 06:14:12;;;;;;;0.20;0.20;;;;;;;6.40;82.03;98098.28;4889163;29;20214;-77
2022/02/07 06:16:39;;;;;;;0.17;0.17;;;;;;;6.52;80.70;98115.91;4904884;29;20569;-78
2022/02/07 06:19:07;;;;;;;0.20;0.20;;;;;;;6.54;79.81;98107.66;4904766;29;20206;-78
2022/02/07 06:21:40;;;;;;;0.20;0.13;;;;;;;6.57;77.60;98136.50;4904504;29;20689;-76
2022/02/07 06:24:07;;;;;;;0.10;0.10;;;;;;;6.53;78.47;98149.44;4904853;29;20601;-78
2022/02/07 06:26:33;;;;;;;0.73;0.20;;;;;;;6.62;78.10;98129.41;4904824;29;20286;-77
2022/02/07 06:29:04;;;;;;;0.37;0.20;;;;;;;6.45;78.18;98157.75;4904289;29;20752;-80
2022/02/07 06:31:32;;;;;;;0.27;0.27;;;;;;;6.60;78.07;98167.97;4873605;29;20262;-80
2022/02/07 06:34:02;;;;;;;1.93;0.50;;;;;;;6.49;78.24;98213.97;4887413;29;20229;-77
2022/02/07 06:36:29;;;;;;;0.30;0.30;;;;;;;6.68;79.33;98225.34;4886374;29;20230;-80
2022/02/07 06:38:58;;;;;;;0.27;0.20;;;;;;;6.70;79.34;98228.59;4901612;29;20198;-79
2022/02/07 06:41:26;;;;;;;0.10;0.10;;;;;;;6.50;85.11;98258.16;4901099;29;20191;-81
2022/02/07 06:43:55;;;;;;;0.60;0.20;;;;;;;6.60;100.00;98271.75;4885249;29;20206;-80
2022/02/07 06:46:24;;;;;;;0.30;0.27;;;;;;;7.45;100.00;98275.69;4904074;29;20220;-80
2022/02/07 06:48:52;;;;;;;0.20;0.20;;;;;;;7.65;100.00;98291.31;4898354;23;20254;-77
2022/02/07 06:51:20;;;;;;;1.50;0.23;;;;;;;7.47;100.00;98324.22;4890720;29;20206;-81
2022/02/07 06:53:51;;;;;;;0.70;0.30;;;;;;;8.91;100.00;98337.66;4887917;29;20222;-81
2022/02/07 06:56:20;;;;;;;0.30;0.30;;;;;;;9.58;100.00;98360.69;4887942;29;20500;-81
2022/02/07 06:58:49;;;;;;;0.50;0.30;;;;;;;9.90;100.00;98418.94;4902398;29;20201;-81
2022/02/07 07:01:19;;;;;;;0.53;0.27;;;;;;;9.54;100.00;98407.69;4920316;29;20554;-82
2022/02/07 07:03:46;;;;;;;0.70;0.30;;;;;;;8.48;100.00;98412.91;4888555;29;20191;-83
2022/02/07 07:06:15;;;;;;;0.40;0.40;;;;;;;9.34;100.00;98409.19;4906354;29;20199;-82
2022/02/07 07:08:48;;;;;;;0.20;0.20;;;;;;;7.71;100.00;98364.22;4909188;29;20222;-81
2022/02/07 07:11:19;;;;;;;0.30;0.27;;;;;;;6.38;100.00;98371.72;4925768;29;20186;-81
2022/02/07 07:13:52;;;;;;;0.10;0.10;;;;;;;4.96;100.00;98391.16;4928214;29;20168;-81
2022/02/07 07:18:51;;;;;;;0.87;0.27;;;;;;;5.12;100.00;98364.09;4898105;29;20223;-82
2022/02/07 07:21:20;;;;;;;0.40;0.30;;;;;;;5.42;100.00;98366.09;4896492;29;20246;-81
2022/02/07 07:23:50;;;;;;;0.90;0.33;;;;;;;5.58;100.00;98376.19;4913971;29;20203;-82
2022/02/07 07:26:17;;;;;;;0.27;0.23;;;;;;;5.62;100.00;98386.16;4912836;29;20196;-81
2022/02/07 07:28:46;;;;;;;0.20;0.20;;;;;;;6.14;100.00;98379.56;4914301;29;20222;-81
2022/02/07 07:31:16;;;;;;;0.30;0.30;;;;;;;5.98;100.00;98369.50;4914430;29;20213;-81
2022/02/07 07:33:52;;;;;;;0.40;0.40;;;;;;;6.15;100.00;98367.06;4896980;29;20188;-83
2022/02/07 07:36:21;;;;;;;1.13;0.60;;;;;;;6.25;100.00;98348.75;4911038;29;20211;-82
2022/02/07 07:38:49;;;;;;;0.50;0.50;;;;;;;6.61;100.00;98375.31;4913492;29;20613;-81
2022/02/07 07:41:20;;;;;;;2.77;0.60;;;;;;;6.93;100.00;98389.22;4914061;29;20191;-81
2022/02/07 07:43:55;;;;;;;2.23;0.50;;;;;;;6.96;100.00;98407.41;4914321;29;20207;-81
2022/02/07 07:46:47;;;;;;;0.77;0.40;;;;;;;7.40;100.00;98424.00;4913034;29;20251;-82
2022/02/07 07:50:10;;;;;;;1.03;0.40;;;;;;;7.64;100.00;98438.19;4846617;29;20197;-81
2022/02/07 07:53:09;;;;;;;0.30;0.30;;;;;;;7.86;100.00;98434.72;4893001;29;20273;-81
2022/02/07 08:01:41;;;;;;;0.40;0.40;;;;;;;8.12;100.00;98451.31;4881143;29;20198;-80
2022/02/07 08:04:16;;;;;;;0.63;0.50;;;;;;;8.05;100.00;98447.94;4877793;29;20762;-80
2022/02/07 08:07:04;;;;;;;1.03;0.43;;;;;;;7.88;100.00;98463.84;4871204;29;20195;-80
2022/02/07 08:12:22;;;;;;;0.50;0.40;;;;;;;8.11;100.00;98471.84;4857067;29;20279;-80
2022/02/07 08:14:50;;;;;;;0.80;0.40;;;;;;;7.94;100.00;98454.88;4865071;29;20640;-83
2022/02/07 08:17:28;;;;;;;0.77;0.40;;;;;;;8.81;100.00;98496.66;4883276;29;20485;-80
2022/02/07 08:19:55;;;;;;;1.13;0.40;;;;;;;9.11;99.73;98495.63;4864564;29;20224;-79
2022/02/07 08:22:25;;;;;;;0.53;0.37;;;;;;;8.61;99.98;98485.53;4852436;29;20203;-80
2022/02/07 08:24:55;;;;;;;0.27;0.20;;;;;;;8.71;97.01;98511.66;4868074;29;20219;-80
2022/02/07 08:27:26;;;;;;;3.00;0.50;;;;;;;8.56;93.96;98541.50;4885862;29;20224;-78
2022/02/07 08:29:54;;;;;;;0.77;0.40;;;;;;;8.44;96.94;98540.69;4885738;29;20195;-78
2022/02/07 08:32:21;;;;;;;0.63;0.40;;;;;;;8.77;95.81;98543.56;4885127;29;20273;-80
2022/02/07 08:34:52;;;;;;;0.63;0.33;;;;;;;8.81;93.92;98546.59;4868952;29;20603;-78
2022/02/07 08:37:18;;;;;;;0.87;0.20;;;;;;;9.20;91.91;98566.38;4878774;29;20512;-78
2022/02/07 08:39:45;;;;;;;0.33;0.33;;;;;;;9.48;91.77;98565.59;4850182;29;20215;-78
2022/02/07 08:42:13;;;;;;;0.67;0.30;;;;;;;9.55;90.24;98584.97;4849935;29;20200;-79
2022/02/07 08:44:40;;;;;;;2.13;0.30;;;;;;;9.54;91.52;98588.69;4866966;29;20201;-81
2022/02/07 08:47:06;;;;;;;0.30;0.30;;;;;;;9.72;89.06;98585.84;4867562;29;20302;-80
2022/02/07 08:49:33;;;;;;;0.70;0.40;;;;;;;10.02;84.18;98588.25;4902581;29;20210;-79
2022/02/07 08:52:02;;;;;;;0.30;0.23;;;;;;;10.42;82.77;98588.97;4919439;29;20771;-77
2022/02/07 08:54:34;;;;;;;0.83;0.50;;;;;;;10.68;78.90;98602.78;4886057;29;20199;-79
2022/02/07 08:59:50;;;;;;;0.60;0.50;;;;;;;10.54;75.98;98604.97;4916801;29;20187;-80
2022/02/07 09:02:56;;;;;;;0.97;0.40;;;;;;;10.44;78.50;98615.50;4916765;29;20195;-80
2022/02/07 09:10:35;;;;;;;1.03;0.90;;;;;;;10.37;79.00;98652.31;4901314;29;20215;-81
2022/02/07 09:13:02;;;;;;;1.00;0.50;;;;;;;10.44;75.02;98643.09;4898990;29;20203;-80
2022/02/07 09:15:40;;;;;;;2.20;0.70;;;;;;;9.83;72.73;98643.03;4867206;29;20197;-80
2022/02/07 09:18:07;;;;;;;0.27;0.27;;;;;;;9.41;74.05;98661.97;4883725;29;20190;-80
2022/02/07 09:20:37;;;;;;;0.67;0.60;;;;;;;9.41;71.65;98674.53;4897741;29;20200;-82
2022/02/07 09:23:05;;;;;;;0.87;0.47;;;;;;;9.08;73.68;98700.00;4867530;29;20306;-80
2022/02/07 09:25:31;;;;;;;1.87;0.97;;;;;;;9.21;71.44;98667.69;4896468;29;20287;-82
2022/02/07 09:28:00;;;;;;;1.43;1.27;;;;;;;9.29;73.88;98693.25;4882224;29;20207;-83
2022/02/07 09:30:27;;;;;;;0.90;0.80;;;;;;;9.31;75.58;98701.84;4887196;29;20213;-79
2022/02/07 09:32:54;;;;;;;0.70;0.50;;;;;;;9.87;76.38;98714.53;4884904;29;20306;-82
2022/02/07 09:35:21;;;;;;;1.60;0.80;;;;;;;9.77;73.57;98724.22;4884813;29;20193;-82
2022/02/07 09:37:47;;;;;;;0.83;0.40;;;;;;;9.64;75.15;98719.94;4883855;29;20184;-78
2022/02/07 09:40:15;;;;;;;0.50;0.40;;;;;;;9.60;76.39;98726.81;4884508;29;20492;-82
2022/02/07 09:42:46;;;;;;;0.50;0.40;;;;;;;9.79;76.44;98709.56;4914806;29;20191;-79
2022/02/07 09:45:18;;;;;;;1.03;0.50;;;;;;;10.08;72.11;98727.25;4914443;29;20183;-78
2022/02/07 09:47:46;;;;;;;9.03;4.17;;;;;;;9.80;72.37;98716.53;4900225;29;20241;-78
2022/02/07 09:50:13;;;;;;;0.60;0.60;;;;;;;9.80;72.83;98715.75;4883652;29;20197;-82
2022/02/07 09:52:39;;;;;;;0.40;0.40;;;;;;;10.02;73.08;98725.56;4883316;29;20246;-77
2022/02/07 09:55:09;;;;;;;0.40;0.40;;;;;;;10.27;72.01;98719.88;4899628;29;20193;-78
2022/02/07 09:57:36;;;;;;;0.53;0.47;;;;;;;10.00;71.34;98730.31;4884182;29;20194;-77
2022/02/07 10:00:06;;;;;;;0.60;0.60;;;;;;;10.70;69.02;98727.38;4900167;29;20190;-79
2022/02/07 10:02:49;;;;;;;1.20;0.40;;;;;;;10.60;67.37;98730.69;4883331;29;20187;-80
2022/02/07 10:05:24;;;;;;;1.07;0.60;;;;;;;10.13;68.07;98731.91;4898953;29;20195;-79
2022/02/07 10:08:09;;;;;;;1.70;0.50;;;;;;;9.63;65.41;98716.47;4899936;29;20215;-79
2022/02/07 10:10:48;;;;;;;1.77;0.60;;;;;;;9.80;67.75;98734.47;4913058;29;20218;-81
2022/02/07 10:13:31;;;;;;;0.57;0.40;;;;;;;9.76;67.16;98727.94;4899243;29;20187;-81
2022/02/07 10:16:07;;;;;;;1.33;0.47;;;;;;;10.18;65.81;98707.94;4899354;29;20266;-82
2022/02/07 10:18:42;;;;;;;0.53;0.40;;;;;;;10.72;66.47;98729.81;4900266;29;20179;-80
2022/02/07 10:35:22;;;;;;;1.03;0.70;;;;;;;11.86;59.89;98752.47;4896772;29;20203;-82
2022/02/07 10:38:07;;;;;;;1.90;1.47;;;;;;;12.10;60.05;98758.41;4899080;29;20206;-82
2022/02/07 10:46:09;;;;;;;2.00;1.30;;;;;;;12.11;58.80;98751.97;4868751;29;20180;-78
2022/02/07 10:48:53;;;;;;;1.10;0.70;;;;;;;11.72;60.24;98781.53;4886019;29;20251;-80
2022/02/07 10:51:31;;;;;;;0.97;0.50;;;;;;;11.74;61.14;98800.91;4901244;29;20195;-82
2022/02/07 10:54:12;;;;;;;0.63;0.50;;;;;;;11.33;62.90;98795.94;4899424;29;20200;-83
2022/02/07 10:56:44;;;;;;;1.30;0.50;;;;;;;10.82;64.16;98802.34;4893445;29;20202;-80
2022/02/07 10:59:17;;;;;;;0.43;0.40;;;;;;;11.27;63.88;98821.88;4903973;29;20167;-81
2022/02/07 11:04:16;;;;;;;1.23;0.70;;;;;;;8.50;77.90;98825.38;4904323;29;20187;-82
2022/02/07 11:06:47;;;;;;;1.40;0.40;;;;;;;8.37;79.74;98817.56;4886820;29;20693;-80
2022/02/07 11:09:26;;;;;;;1.23;0.40;;;;;;;8.37;82.07;98838.91;4887255;29;20598;-82
2022/02/07 11:12:14;;;;;;;0.43;0.40;;;;;;;8.42;79.25;98841.72;4916660;29;20520;-79
2022/02/07 11:22:44;;;;;;;0.40;0.40;;;;;;;8.71;67.92;98848.13;4902771;29;20201;-80
2022/02/07 11:25:28;;;;;;;0.50;0.40;;;;;;;8.95;64.37;98846.34;4894812;29;20667;-81
2022/02/07 11:27:59;;;;;;;0.43;0.40;;;;;;;8.96;65.04;98845.31;4900532;29;20255;-80
2022/02/07 11:30:35;;;;;;;0.93;0.30;;;;;;;8.52;65.02;98850.03;4881545;29;20208;-79
2022/02/07 11:33:02;;;;;;;0.40;0.40;;;;;;;8.81;65.64;98873.25;4881488;29;20191;-79
2022/02/07 11:35:34;;;;;;;0.50;0.40;;;;;;;8.86;65.23;98859.22;4884547;29;20638;-76
2022/02/07 11:38:01;;;;;;;1.13;1.03;;;;;;;8.72;64.68;98871.94;4890850;29;20207;-80
2022/02/07 11:40:55;;;;;;;0.57;0.40;;;;;;;8.52;66.61;98873.22;4884150;29;20230;-79
2022/02/07 11:43:24;;;;;;;1.23;0.60;;;;;;;8.35;65.26;98876.50;4867054;29;20549;-80
2022/02/07 11:46:12;;;;;;;0.50;0.50;;;;;;;8.20;65.50;98912.59;4897382;29;20234;-80
2022/02/07 11:48:51;;;;;;;0.40;0.30;;;;;;;8.31;63.88;98901.19;4883985;29;20534;-82
2022/02/07 11:51:26;;;;;;;1.33;0.30;;;;;;;8.14;64.92;98902.78;4867702;29;20208;-79
2022/02/07 11:53:58;;;;;;;0.80;0.40;;;;;;;8.23;64.33;98893.44;4867033;29;20184;-79
2022/02/07 11:59:28;;;;;;;1.70;0.97;;;;;;;8.54;65.81;98897.84;4888254;29;20183;-79
2022/02/07 12:02:08;;;;;;;1.40;1.10;;;;;;;8.74;65.17;98880.53;4888699;29;20288;-81
2022/02/07 12:04:42;;;;;;;0.40;0.40;;;;;;;8.33;63.91;98883.09;4902695;29;20235;-79
2022/02/07 12:07:19;;;;;;;2.20;1.00;;;;;;;8.24;64.03;98890.56;4902526;29;20556;-83
2022/02/07 12:12:52;;;;;;;1.37;0.53;;;;;;;8.42;64.51;98879.09;4874659;29;20202;-77
2022/02/07 12:15:34;;;;;;;0.90;0.50;;;;;;;8.54;64.62;98887.19;4903757;29;20195;-77
2022/02/07 12:18:18;;;;;;;0.70;0.50;;;;;;;8.74;64.49;98901.06;4905324;29;20188;-77
2022/02/07 12:20:48;;;;;;;1.37;0.50;;;;;;;8.72;63.74;98893.31;4906452;29;20183;-78
2022/02/07 12:23:38;;;;;;;0.87;0.50;;;;;;;9.05;66.55;98898.19;4920794;29;20182;-78
2022/02/07 12:26:09;;;;;;;0.50;0.50;;;;;;;8.87;72.47;98911.59;4906661;29;20184;-81
2022/02/07 12:28:43;;;;;;;0.70;0.50;;;;;;;9.19;72.67;98910.31;4919633;29;20528;-79
2022/02/07 12:31:20;;;;;;;0.70;0.50;;;;;;;9.11;71.16;98918.66;4904930;29;20190;-78
2022/02/07 12:34:01;;;;;;;0.60;0.50;;;;;;;9.44;71.04;98933.38;4904461;29;20202;-78
2022/02/07 12:36:30;;;;;;;0.53;0.43;;;;;;;9.67;73.97;98928.91;4902727;29;20554;-77
2022/02/07 12:39:10;;;;;;;0.80;0.47;;;;;;;9.24;75.67;98942.50;4887816;29;20555;-82
2022/02/07 12:41:37;;;;;;;0.80;0.60;;;;;;;9.25;77.83;98954.03;4888397;29;20214;-78
2022/02/07 12:44:07;;;;;;;0.60;0.40;;;;;;;9.22;80.06;98949.97;4887223;29;20197;-78
2022/02/07 12:46:35;;;;;;;1.03;0.37;;;;;;;9.07;83.29;98970.09;4917799;29;20209;-78
2022/02/07 12:49:09;;;;;;;0.57;0.57;;;;;;;9.06;84.14;98974.63;4886821;29;20588;-80
2022/02/07 12:51:42;;;;;;;1.53;0.50;;;;;;;8.65;88.23;98994.03;4917545;29;20228;-78
2022/02/07 12:54:10;;;;;;;0.57;0.50;;;;;;;8.30;96.80;98999.13;4918923;29;20205;-79
2022/02/07 12:56:39;;;;;;;2.03;0.50;;;;;;;8.41;99.94;99002.91;4876149;29;20234;-79
2022/02/07 12:59:06;;;;;;;0.40;0.40;;;;;;;8.01;97.78;98989.09;4889242;29;20189;-80
2022/02/07 13:01:39;;;;;;;1.10;0.60;;;;;;;7.72;89.00;99000.41;4920422;29;20195;-77
2022/02/07 13:04:12;;;;;;;2.43;0.50;;;;;;;7.70;94.65;98978.50;4906749;29;20187;-80
2022/02/07 13:06:43;;;;;;;0.77;0.50;;;;;;;7.55;89.91;98993.97;4887672;29;20188;-81
2022/02/07 13:09:23;;;;;;;0.40;0.33;;;;;;;6.97;87.25;98989.56;4887071;29;20274;-80
2022/02/07 13:15:02;;;;;;;0.60;0.50;;;;;;;7.77;94.86;99012.06;4914091;29;20579;-80
2022/02/07 13:17:31;;;;;;;3.00;0.60;;;;;;;7.75;91.28;99010.63;4887161;29;20287;-80
2022/02/07 13:20:08;;;;;;;1.80;0.80;;;;;;;7.90;90.21;99022.63;4869133;29;20226;-77
2022/02/07 13:22:36;;;;;;;0.87;0.53;;;;;;;7.76;89.68;99041.59;4900285;29;20203;-81
2022/02/07 13:25:04;;;;;;;0.60;0.57;;;;;;;7.89;91.38;99036.16;4885271;29;20188;-83
2022/02/07 13:27:37;;;;;;;0.63;0.40;;;;;;;8.01;88.87;99020.28;4884772;29;20271;-80
2022/02/07 13:30:12;;;;;;;0.97;0.50;;;;;;;8.12;85.54;99048.94;4903937;29;20219;-81
2022/02/07 13:32:40;;;;;;;1.63;0.50;;;;;;;8.13;84.50;99051.38;4903379;29;20224;-82
2022/02/07 13:35:13;;;;;;;2.77;0.63;;;;;;;8.16;84.16;99045.63;4884540;29;20303;-82
2022/02/07 13:37:43;;;;;;;0.70;0.57;;;;;;;8.28;84.19;99059.88;4896633;29;20183;-80
2022/02/07 13:40:21;;;;;;;1.77;0.60;;;;;;;8.16;82.90;99058.16;4866794;29;20211;-80
2022/02/07 13:42:49;;;;;;;1.27;0.50;;;;;;;8.04;84.29;99070.53;4867464;29;20603;-79
2022/02/07 13:45:21;;;;;;;2.30;0.40;;;;;;;8.06;85.52;99071.97;4904354;29;20278;-79
2022/02/07 13:47:53;;;;;;;0.63;0.30;;;;;;;7.81;85.64;99087.13;4901919;29;20253;-80
2022/02/07 13:50:22;;;;;;;1.10;0.50;;;;;;;8.01;84.32;99082.47;4883579;29;20207;-80
2022/02/07 13:52:52;;;;;;;0.37;0.30;;;;;;;8.09;86.13;99097.38;4898562;29;20232;-79
2022/02/07 13:55:22;;;;;;;1.90;0.70;;;;;;;8.15;83.75;99094.69;4886110;29;20194;-81
2022/02/07 13:57:57;;;;;;;1.43;0.63;;;;;;;8.52;82.46;99110.84;4884256;29;20318;-82
2022/02/07 14:00:45;;;;;;;0.87;0.60;;;;;;;8.27;84.46;99106.28;4904276;29;20209;-77
2022/02/07 14:03:22;;;;;;;0.97;0.50;;;;;;;8.46;78.40;99109.03;4914689;29;20210;-76
2022/02/07 14:06:14;;;;;;;1.60;0.80;;;;;;;8.84;80.57;99112.38;4921627;29;20187;-79
2022/02/07 14:08:51;;;;;;;1.27;0.70;;;;;;;8.93;78.26;99127.09;4923017;29;20555;-79
2022/02/07 14:11:22;;;;;;;1.10;0.50;;;;;;;8.76;75.51;99123.38;4922840;29;20210;-79
2022/02/07 14:13:55;;;;;;;1.10;0.57;;;;;;;8.58;77.95;99129.50;4906735;29;20246;-79
2022/02/07 14:16:25;;;;;;;1.60;0.67;;;;;;;8.68;76.53;99127.13;4892791;29;20195;-82
2022/02/07 14:18:53;;;;;;;1.10;0.60;;;;;;;8.74;76.13;99144.94;4907274;29;20191;-77
2022/02/07 14:21:22;;;;;;;1.17;0.60;;;;;;;8.76;76.39;99148.22;4914879;29;20657;-79
2022/02/07 14:23:51;;;;;;;1.13;0.57;;;;;;;8.65;80.25;99158.78;4906830;29;20205;-79